Time;durP1;ratioP1;P1;durP2;ratioP2;P2;SDS_P1;SDS_P2;PMS_P1;PMS_P2;Temp;Humidity;BMP_temperature;BMP_pressure;BME280_temperature;BME280_humidity;BME280_pressure;Samples;Min_cycle;Max_cycle;Signal;HPM_P1;HPM_P2
2023/08/13 00:01:42;;;;;;;;;;;22.80;63.00;;;;;;1586950;73;789;-59
2023/08/13 00:03:44;;;;;;;;;;;22.80;62.90;;;;;;1595478;74;776;-59
2023/08/13 00:05:49;;;;;;;;;;;22.80;63.20;;;;;;1580249;74;693;-59
2023/08/13 00:07:50;;;;;;;;;;;22.80;63.50;;;;;;1578209;74;724;-59
2023/08/13 00:09:52;;;;;;;;;;;22.80;63.90;;;;;;1586232;73;1180;-59
2023/08/13 00:11:54;;;;;;;;;;;22.80;64.20;;;;;;1582143;74;1938;-59
2023/08/13 00:13:56;;;;;;;;;;;22.80;64.30;;;;;;1590673;74;736;-60
2023/08/13 00:15:58;;;;;;;;;;;22.80;64.10;;;;;;1573841;73;823;-60
2023/08/13 00:18:00;;;;;;;;;;;22.80;64.10;;;;;;1598111;73;737;-60
2023/08/13 00:20:02;;;;;;;;;;;22.80;63.90;;;;;;1586285;73;1144;-59
2023/08/13 00:22:04;;;;;;;;;;;22.80;64.00;;;;;;1589510;74;724;-59
2023/08/13 00:24:06;;;;;;;;;;;22.80;63.70;;;;;;1579734;74;699;-60
2023/08/13 00:26:08;;;;;;;;;;;22.70;63.50;;;;;;1587234;74;1475;-59
2023/08/13 00:28:10;;;;;;;;;;;22.80;63.30;;;;;;1598530;74;774;-59
2023/08/13 00:30:12;;;;;;;;;;;22.70;63.60;;;;;;1593543;73;1120;-59
2023/08/13 00:32:14;;;;;;;;;;;22.70;63.70;;;;;;1580927;74;1924;-59
2023/08/13 00:34:16;;;;;;;;;;;22.70;63.50;;;;;;1589157;73;713;-59
2023/08/13 00:36:18;;;;;;;;;;;22.80;63.40;;;;;;1592764;73;758;-59
2023/08/13 00:38:20;;;;;;;;;;;22.80;63.40;;;;;;1586844;73;820;-59
2023/08/13 00:40:21;;;;;;;;;;;22.70;63.40;;;;;;1585340;73;1462;-59
2023/08/13 00:42:23;;;;;;;;;;;22.90;63.50;;;;;;1587256;73;793;-59
2023/08/13 00:44:25;;;;;;;;;;;22.80;63.40;;;;;;1583838;74;682;-59
2023/08/13 00:46:27;;;;;;;;;;;22.70;63.40;;;;;;1580482;74;701;-59
2023/08/13 00:48:29;;;;;;;;;;;22.70;63.50;;;;;;1579546;73;804;-59
2023/08/13 00:50:31;;;;;;;;;;;22.80;63.60;;;;;;1577433;74;829;-59
2023/08/13 00:52:33;;;;;;;;;;;22.80;63.90;;;;;;1579265;73;1947;-60
2023/08/13 00:54:35;;;;;;;;;;;22.80;63.90;;;;;;1577274;73;1567;-59
2023/08/13 00:56:37;;;;;;;;;;;22.80;63.80;;;;;;1586548;74;782;-59
2023/08/13 00:58:40;;;;;;;;;;;22.80;63.60;;;;;;1581146;74;1098;-59
2023/08/13 01:00:42;;;;;;;;;;;22.70;63.60;;;;;;1583345;73;755;-60
2023/08/13 01:02:44;;;;;;;;;;;22.80;63.50;;;;;;1584561;73;633;-59
2023/08/13 01:04:46;;;;;;;;;;;22.70;63.50;;;;;;1583620;73;766;-60
2023/08/13 01:06:49;;;;;;;;;;;22.70;63.70;;;;;;1589877;73;645;-59
2023/08/13 01:08:53;;;;;;;;;;;22.80;63.70;;;;;;1594941;74;1845;-60
2023/08/13 01:10:56;;;;;;;;;;;22.70;63.70;;;;;;1587964;74;1815;-59
2023/08/13 01:13:00;;;;;;;;;;;22.80;64.10;;;;;;1581451;73;1916;-59
2023/08/13 01:15:15;;;;;;;;;;;22.80;64.00;;;;;;1589138;73;787;-59
2023/08/13 01:17:17;;;;;;;;;;;22.70;64.00;;;;;;1593182;74;1985;-59
2023/08/13 01:19:19;;;;;;;;;;;22.80;64.40;;;;;;1584864;73;1086;-59
2023/08/13 01:21:21;;;;;;;;;;;22.80;64.80;;;;;;1586676;74;782;-59
2023/08/13 01:23:23;;;;;;;;;;;22.80;65.00;;;;;;1585463;73;1272;-59
2023/08/13 01:25:28;;;;;;;;;;;22.70;65.00;;;;;;1582858;74;675;-59
2023/08/13 01:27:37;;;;;;;;;;;22.80;64.90;;;;;;1584693;73;757;-59
2023/08/13 01:29:47;;;;;;;;;;;22.70;64.70;;;;;;1576990;74;1062;-60
2023/08/13 01:31:49;;;;;;;;;;;22.70;64.70;;;;;;1590072;74;1945;-59
2023/08/13 01:33:51;;;;;;;;;;;22.70;64.80;;;;;;1580868;73;808;-59
2023/08/13 01:35:54;;;;;;;;;;;22.70;64.60;;;;;;1584861;73;656;-59
2023/08/13 01:37:56;;;;;;;;;;;22.70;64.50;;;;;;1588513;74;1643;-59
2023/08/13 01:39:58;;;;;;;;;;;22.70;64.60;;;;;;1590991;74;1089;-60
2023/08/13 01:42:00;;;;;;;;;;;22.80;64.40;;;;;;1596559;74;726;-59
2023/08/13 01:44:02;;;;;;;;;;;22.80;64.80;;;;;;1589666;73;974;-59
2023/08/13 01:46:04;;;;;;;;;;;22.80;64.90;;;;;;1587179;74;736;-59
2023/08/13 01:48:06;;;;;;;;;;;22.80;64.70;;;;;;1577484;74;718;-59
2023/08/13 01:50:08;;;;;;;;;;;22.80;64.80;;;;;;1589824;73;1080;-59
2023/08/13 01:52:10;;;;;;;;;;;22.80;65.80;;;;;;1584452;73;1922;-60
2023/08/13 01:54:12;;;;;;;;;;;22.70;66.60;;;;;;1595936;73;754;-59
2023/08/13 01:56:14;;;;;;;;;;;22.70;66.90;;;;;;1589689;74;764;-59
2023/08/13 01:58:16;;;;;;;;;;;22.70;66.50;;;;;;1584343;73;716;-59
2023/08/13 02:00:18;;;;;;;;;;;22.80;67.20;;;;;;1595547;74;1048;-61
2023/08/13 02:02:20;;;;;;;;;;;22.70;67.60;;;;;;1573832;74;764;-59
2023/08/13 02:04:22;;;;;;;;;;;22.70;67.10;;;;;;1579754;73;1527;-60
2023/08/13 02:06:24;;;;;;;;;;;22.70;67.10;;;;;;1577956;73;657;-60
2023/08/13 02:08:25;;;;;;;;;;;22.70;67.00;;;;;;1589982;73;808;-59
2023/08/13 02:10:27;;;;;;;;;;;22.70;67.40;;;;;;1590561;74;1121;-59
2023/08/13 02:12:29;;;;;;;;;;;22.70;67.00;;;;;;1587430;74;1930;-60
2023/08/13 02:14:31;;;;;;;;;;;22.70;67.10;;;;;;1582142;73;718;-60
2023/08/13 02:16:33;;;;;;;;;;;22.70;67.00;;;;;;1584982;73;731;-59
2023/08/13 02:18:35;;;;;;;;;;;22.70;67.00;;;;;;1581762;74;1422;-59
2023/08/13 02:20:37;;;;;;;;;;;22.70;67.50;;;;;;1574126;74;776;-59
2023/08/13 02:22:39;;;;;;;;;;;22.70;67.80;;;;;;1579481;74;740;-59
2023/08/13 02:24:40;;;;;;;;;;;22.70;67.90;;;;;;1590146;73;747;-59
2023/08/13 02:26:42;;;;;;;;;;;22.70;67.60;;;;;;1582404;74;814;-59
2023/08/13 02:28:45;;;;;;;;;;;22.70;67.40;;;;;;1585792;74;1117;-58
2023/08/13 02:30:49;;;;;;;;;;;22.70;67.30;;;;;;1587326;73;700;-59
2023/08/13 02:32:51;;;;;;;;;;;22.70;67.10;;;;;;1594955;74;1950;-59
2023/08/13 02:34:52;;;;;;;;;;;22.70;67.10;;;;;;1585403;73;675;-59
2023/08/13 02:36:54;;;;;;;;;;;22.70;67.10;;;;;;1584932;74;725;-59
2023/08/13 02:38:56;;;;;;;;;;;22.70;67.00;;;;;;1592511;74;1150;-60
2023/08/13 02:40:58;;;;;;;;;;;22.70;66.70;;;;;;1587173;74;714;-59
2023/08/13 02:43:00;;;;;;;;;;;22.70;66.50;;;;;;1594823;73;607;-60
2023/08/13 02:45:02;;;;;;;;;;;22.70;67.00;;;;;;1590568;74;750;-59
2023/08/13 02:47:04;;;;;;;;;;;22.70;66.80;;;;;;1580421;73;1496;-59
2023/08/13 02:49:05;;;;;;;;;;;22.80;66.80;;;;;;1584087;74;1127;-59
2023/08/13 02:51:07;;;;;;;;;;;22.70;66.70;;;;;;1582304;73;706;-59
2023/08/13 02:53:09;;;;;;;;;;;22.70;66.60;;;;;;1583097;73;1949;-59
2023/08/13 02:55:11;;;;;;;;;;;22.70;66.50;;;;;;1579637;74;698;-58
2023/08/13 02:57:13;;;;;;;;;;;22.70;66.50;;;;;;1590792;73;665;-59
2023/08/13 02:59:15;;;;;;;;;;;22.40;66.20;;;;;;1585233;74;1128;-59
2023/08/13 03:01:17;;;;;;;;;;;22.70;66.30;;;;;;1583659;73;1466;-59
2023/08/13 03:03:19;;;;;;;;;;;22.70;66.70;;;;;;1588284;74;910;-59
2023/08/13 03:05:20;;;;;;;;;;;22.60;66.70;;;;;;1589946;74;753;-60
2023/08/13 03:07:22;;;;;;;;;;;22.60;66.50;;;;;;1586702;73;772;-59
2023/08/13 03:09:24;;;;;;;;;;;22.60;66.50;;;;;;1597205;74;1148;-59
2023/08/13 03:11:26;;;;;;;;;;;22.60;66.40;;;;;;1587123;74;1059;-59
2023/08/13 03:13:28;;;;;;;;;;;22.60;66.10;;;;;;1586198;74;1930;-59
2023/08/13 03:15:30;;;;;;;;;;;22.70;66.40;;;;;;1580579;74;1549;-59
2023/08/13 03:17:32;;;;;;;;;;;22.60;66.40;;;;;;1591758;73;662;-59
2023/08/13 03:19:34;;;;;;;;;;;22.60;66.40;;;;;;1578225;74;1101;-59
2023/08/13 03:21:35;;;;;;;;;;;22.60;66.40;;;;;;1592602;74;754;-59
2023/08/13 03:23:37;;;;;;;;;;;22.60;66.40;;;;;;1587387;73;708;-59
2023/08/13 03:25:39;;;;;;;;;;;22.60;66.50;;;;;;1583979;74;739;-59
2023/08/13 03:27:41;;;;;;;;;;;22.60;66.40;;;;;;1589063;73;791;-59
2023/08/13 03:29:43;;;;;;;;;;;22.60;66.30;;;;;;1584826;74;1602;-59
2023/08/13 03:31:45;;;;;;;;;;;22.60;66.30;;;;;;1592112;74;710;-58
2023/08/13 03:33:47;;;;;;;;;;;22.60;66.30;;;;;;1576565;74;1928;-58
2023/08/13 03:35:49;;;;;;;;;;;22.60;66.30;;;;;;1583075;73;764;-59
2023/08/13 03:37:50;;;;;;;;;;;22.60;66.30;;;;;;1583745;73;723;-59
2023/08/13 03:39:52;;;;;;;;;;;22.60;66.10;;;;;;1577771;73;1130;-59
2023/08/13 03:41:54;;;;;;;;;;;22.60;66.10;;;;;;1578176;73;785;-58
2023/08/13 03:43:56;;;;;;;;;;;22.60;65.90;;;;;;1585949;74;1452;-58
2023/08/13 03:45:58;;;;;;;;;;;22.60;65.90;;;;;;1586310;73;658;-58
2023/08/13 03:48:00;;;;;;;;;;;22.60;65.80;;;;;;1587653;73;744;-58
2023/08/13 03:50:02;;;;;;;;;;;22.60;65.90;;;;;;1581636;74;1132;-58
2023/08/13 03:52:04;;;;;;;;;;;22.60;65.90;;;;;;1584422;73;735;-59
2023/08/13 03:54:06;;;;;;;;;;;22.50;66.00;;;;;;1591774;73;1937;-59
2023/08/13 03:56:08;;;;;;;;;;;22.60;65.90;;;;;;1582161;73;693;-59
2023/08/13 03:58:10;;;;;;;;;;;22.60;66.10;;;;;;1585250;73;1515;-59
2023/08/13 04:00:12;;;;;;;;;;;22.60;66.20;;;;;;1590238;74;1133;-59
2023/08/13 04:02:14;;;;;;;;;;;22.50;66.30;;;;;;1591512;73;681;-58
2023/08/13 04:04:16;;;;;;;;;;;22.60;66.30;;;;;;1585997;74;781;-58
2023/08/13 04:06:18;;;;;;;;;;;22.50;66.30;;;;;;1587036;74;787;-58
2023/08/13 04:08:20;;;;;;;;;;;22.50;66.50;;;;;;1588920;73;730;-59
2023/08/13 04:10:21;;;;;;;;;;;22.50;66.50;;;;;;1579428;73;1132;-58
2023/08/13 04:12:23;;;;;;;;;;;22.60;66.80;;;;;;1590436;74;1429;-59
2023/08/13 04:14:25;;;;;;;;;;;22.50;66.70;;;;;;1582243;74;1949;-59
2023/08/13 04:16:27;;;;;;;;;;;22.60;66.50;;;;;;1588380;73;800;-59
2023/08/13 04:18:29;;;;;;;;;;;22.60;66.50;;;;;;1578604;74;629;-59
2023/08/13 04:20:31;;;;;;;;;;;22.60;66.60;;;;;;1588808;74;724;-59
2023/08/13 04:22:33;;;;;;;;;;;22.60;66.60;;;;;;1576914;74;741;-59
2023/08/13 04:24:34;;;;;;;;;;;22.60;66.60;;;;;;1578515;74;757;-58
2023/08/13 04:26:36;;;;;;;;;;;22.50;66.70;;;;;;1598765;73;1503;-59
2023/08/13 04:28:38;;;;;;;;;;;22.50;67.00;;;;;;1590647;74;1138;-58
2023/08/13 04:30:40;;;;;;;;;;;22.50;67.20;;;;;;1586434;73;726;-59
2023/08/13 04:32:42;;;;;;;;;;;22.50;67.20;;;;;;1595748;74;608;-59
2023/08/13 04:34:44;;;;;;;;;;;22.50;67.10;;;;;;1581963;74;1954;-58
2023/08/13 04:36:46;;;;;;;;;;;22.50;67.00;;;;;;1593218;73;738;-59
2023/08/13 04:38:48;;;;;;;;;;;22.50;67.00;;;;;;1576115;74;1142;-59
2023/08/13 04:40:50;;;;;;;;;;;22.50;67.30;;;;;;1596665;73;1397;-58
2023/08/13 04:42:52;;;;;;;;;;;22.60;67.40;;;;;;1588253;74;795;-59
2023/08/13 04:44:54;;;;;;;;;;;22.50;67.60;;;;;;1580506;73;693;-59
2023/08/13 04:46:55;;;;;;;;;;;22.50;67.60;;;;;;1593993;73;786;-59
2023/08/13 04:48:57;;;;;;;;;;;22.50;67.60;;;;;;1590174;73;1155;-59
2023/08/13 04:50:59;;;;;;;;;;;22.50;67.90;;;;;;1582906;73;699;-58
2023/08/13 04:53:01;;;;;;;;;;;22.50;68.20;;;;;;1588800;74;1953;-59
2023/08/13 04:55:03;;;;;;;;;;;22.50;68.10;;;;;;1588752;74;1512;-59
2023/08/13 04:57:05;;;;;;;;;;;22.50;68.00;;;;;;1593768;72;729;-59
2023/08/13 04:59:07;;;;;;;;;;;22.50;67.90;;;;;;1587935;73;1119;-60
2023/08/13 05:01:09;;;;;;;;;;;22.50;67.60;;;;;;1584354;73;669;-59
2023/08/13 05:03:11;;;;;;;;;;;22.50;67.60;;;;;;1587448;74;800;-59
2023/08/13 05:05:13;;;;;;;;;;;22.60;67.60;;;;;;1587957;73;720;-59
2023/08/13 05:07:15;;;;;;;;;;;22.50;67.50;;;;;;1585199;73;1327;-59
2023/08/13 05:09:17;;;;;;;;;;;22.60;67.40;;;;;;1587151;74;1151;-59
2023/08/13 05:11:19;;;;;;;;;;;22.60;67.40;;;;;;1589427;73;748;-59
2023/08/13 05:13:21;;;;;;;;;;;22.60;67.40;;;;;;1587991;74;1937;-58
2023/08/13 05:15:23;;;;;;;;;;;22.60;67.70;;;;;;1598161;74;1219;-59
2023/08/13 05:17:25;;;;;;;;;;;22.60;67.70;;;;;;1585436;74;749;-59
2023/08/13 05:19:27;;;;;;;;;;;22.60;67.80;;;;;;1585894;74;1186;-58
2023/08/13 05:21:29;;;;;;;;;;;22.60;67.60;;;;;;1588051;73;1543;-59
2023/08/13 05:23:31;;;;;;;;;;;22.50;67.90;;;;;;1581395;74;755;-58
2023/08/13 05:25:38;;;;;;;;;;;22.60;67.50;;;;;;1577305;74;944;-59
2023/08/13 05:27:37;;;;;;;;;;;22.60;67.30;;;;;;1592305;74;1608;-59
2023/08/13 05:29:38;;;;;;;;;;;22.70;67.40;;;;;;1588171;74;1129;-58
2023/08/13 05:31:40;;;;;;;;;;;22.80;67.10;;;;;;1586093;74;722;-59
2023/08/13 05:33:42;;;;;;;;;;;22.90;67.20;;;;;;1590697;73;1928;-59
2023/08/13 05:35:44;;;;;;;;;;;22.90;66.90;;;;;;1585462;73;1500;-59
2023/08/13 05:37:46;;;;;;;;;;;22.90;66.60;;;;;;1587675;73;636;-59
2023/08/13 05:39:48;;;;;;;;;;;22.90;66.90;;;;;;1583572;74;1167;-59
2023/08/13 05:41:50;;;;;;;;;;;23.00;66.50;;;;;;1590154;73;712;-59
2023/08/13 05:43:53;;;;;;;;;;;23.00;66.90;;;;;;1589591;74;776;-60
2023/08/13 05:45:55;;;;;;;;;;;23.00;67.10;;;;;;1588069;74;720;-59
2023/08/13 05:47:57;;;;;;;;;;;23.00;66.50;;;;;;1591047;74;716;-59
2023/08/13 05:49:59;;;;;;;;;;;23.10;67.40;;;;;;1588766;73;1312;-59
2023/08/13 05:52:01;;;;;;;;;;;23.10;67.80;;;;;;1589485;74;745;-59
2023/08/13 05:54:03;;;;;;;;;;;23.00;67.10;;;;;;1592969;73;1941;-58
2023/08/13 05:56:05;;;;;;;;;;;23.00;68.30;;;;;;1588768;73;692;-59
2023/08/13 05:58:07;;;;;;;;;;;23.00;67.50;;;;;;1584201;74;736;-59
2023/08/13 06:00:13;;;;;;;;;;;23.00;69.30;;;;;;1589441;74;1119;-58
2023/08/13 06:02:15;;;;;;;;;;;23.00;70.00;;;;;;1592090;74;678;-58
2023/08/13 06:04:17;;;;;;;;;;;22.90;70.60;;;;;;1586787;73;1543;-59
2023/08/13 06:06:20;;;;;;;;;;;22.90;68.90;;;;;;1582611;74;695;-59
2023/08/13 06:08:22;;;;;;;;;;;22.90;68.60;;;;;;1582277;74;741;-58
2023/08/13 06:10:24;;;;;;;;;;;23.00;69.20;;;;;;1586627;73;1131;-58
2023/08/13 06:12:26;;;;;;;;;;;23.00;68.30;;;;;;1582185;73;701;-59
2023/08/13 06:14:28;;;;;;;;;;;23.00;67.30;;;;;;1584744;74;1934;-58
2023/08/13 06:16:30;;;;;;;;;;;23.10;67.20;;;;;;1586222;74;828;-59
2023/08/13 06:18:31;;;;;;;;;;;23.10;67.30;;;;;;1591137;74;1547;-59
2023/08/13 06:20:33;;;;;;;;;;;23.10;68.70;;;;;;1579557;74;760;-59
2023/08/13 06:22:35;;;;;;;;;;;23.10;69.50;;;;;;1578767;74;722;-59
2023/08/13 06:24:37;;;;;;;;;;;23.10;68.20;;;;;;1587365;73;713;-59
2023/08/13 06:26:39;;;;;;;;;;;23.10;68.30;;;;;;1588835;73;811;-58
2023/08/13 06:28:41;;;;;;;;;;;23.20;68.00;;;;;;1585697;73;1163;-59
2023/08/13 06:30:46;;;;;;;;;;;23.20;67.60;;;;;;1583277;74;710;-58
2023/08/13 06:32:47;;;;;;;;;;;23.30;67.00;;;;;;1574036;74;1551;-59
2023/08/13 06:34:49;;;;;;;;;;;23.50;66.90;;;;;;1583178;73;1932;-58
2023/08/13 06:36:53;;;;;;;;;;;23.50;65.80;;;;;;1595764;73;764;-58
2023/08/13 06:38:55;;;;;;;;;;;23.50;65.00;;;;;;1585240;74;2007;-59
2023/08/13 06:40:58;;;;;;;;;;;23.50;65.30;;;;;;1584630;74;808;-59
2023/08/13 06:43:00;;;;;;;;;;;23.60;64.70;;;;;;1583915;74;2173;-59
2023/08/13 06:45:02;;;;;;;;;;;23.70;64.20;;;;;;1592834;73;662;-59
2023/08/13 06:47:04;;;;;;;;;;;23.70;64.20;;;;;;1583366;74;1310;-59
2023/08/13 06:49:06;;;;;;;;;;;23.70;64.10;;;;;;1590999;73;1162;-58
2023/08/13 06:51:11;;;;;;;;;;;23.70;63.80;;;;;;1584457;74;592;-59
2023/08/13 06:53:11;;;;;;;;;;;23.70;63.70;;;;;;1587661;74;1620;-59
2023/08/13 06:55:13;;;;;;;;;;;23.70;64.10;;;;;;1585885;73;1941;-59
2023/08/13 06:57:15;;;;;;;;;;;23.70;63.90;;;;;;1591881;73;779;-59
2023/08/13 06:59:17;;;;;;;;;;;23.70;63.90;;;;;;1583461;74;1152;-59
2023/08/13 07:01:20;;;;;;;;;;;23.70;63.90;;;;;;1583116;74;1585;-59
2023/08/13 07:03:22;;;;;;;;;;;23.70;64.00;;;;;;1587842;74;696;-58
2023/08/13 07:05:24;;;;;;;;;;;23.70;64.00;;;;;;1580585;74;780;-59
2023/08/13 07:07:25;;;;;;;;;;;23.70;64.30;;;;;;1584197;74;628;-59
2023/08/13 07:09:28;;;;;;;;;;;23.60;64.10;;;;;;1578354;74;1124;-59
2023/08/13 07:11:32;;;;;;;;;;;23.70;64.20;;;;;;1586568;73;822;-60
2023/08/13 07:13:33;;;;;;;;;;;23.60;64.30;;;;;;1585634;73;1699;-59
2023/08/13 07:15:35;;;;;;;;;;;23.60;64.20;;;;;;1587022;74;1934;-59
2023/08/13 07:17:37;;;;;;;;;;;23.60;64.40;;;;;;1586413;74;736;-59
2023/08/13 07:19:39;;;;;;;;;;;23.60;64.20;;;;;;1580324;74;1143;-59
2023/08/13 07:21:41;;;;;;;;;;;23.60;64.50;;;;;;1582414;74;791;-59
2023/08/13 07:23:43;;;;;;;;;;;23.60;64.30;;;;;;1590855;73;653;-59
2023/08/13 07:25:45;;;;;;;;;;;23.60;64.50;;;;;;1579182;74;773;-59
2023/08/13 07:27:46;;;;;;;;;;;23.60;64.30;;;;;;1579724;74;785;-58
2023/08/13 07:29:48;;;;;;;;;;;23.50;64.60;;;;;;1587601;74;1720;-59
2023/08/13 07:31:50;;;;;;;;;;;23.50;64.80;;;;;;1594356;73;678;-59
2023/08/13 07:33:53;;;;;;;;;;;23.50;64.80;;;;;;1573150;74;793;-59
2023/08/13 07:35:55;;;;;;;;;;;23.60;65.10;;;;;;1576624;74;1894;-59
2023/08/13 07:37:57;;;;;;;;;;;23.50;65.10;;;;;;1583394;73;646;-59
2023/08/13 07:39:59;;;;;;;;;;;23.50;65.10;;;;;;1585772;74;1119;-59
2023/08/13 07:42:01;;;;;;;;;;;23.50;65.40;;;;;;1593978;73;1453;-59
2023/08/13 07:44:03;;;;;;;;;;;23.40;65.10;;;;;;1593515;74;729;-59
2023/08/13 07:46:05;;;;;;;;;;;23.40;65.30;;;;;;1577475;73;675;-59
2023/08/13 07:48:07;;;;;;;;;;;23.50;65.30;;;;;;1586160;74;1152;-59
2023/08/13 07:50:10;;;;;;;;;;;23.40;65.20;;;;;;1588838;73;1826;-59
2023/08/13 07:52:12;;;;;;;;;;;23.50;65.60;;;;;;1583670;73;1055;-60
2023/08/13 07:54:14;;;;;;;;;;;23.40;65.70;;;;;;1581763;73;1925;-59
2023/08/13 07:56:15;;;;;;;;;;;23.40;65.70;;;;;;1586837;73;1469;-59
2023/08/13 07:58:18;;;;;;;;;;;23.40;65.80;;;;;;1593849;73;1552;-59
2023/08/13 08:00:20;;;;;;;;;;;23.30;65.80;;;;;;1590679;73;1524;-59
2023/08/13 08:02:23;;;;;;;;;;;23.30;65.80;;;;;;1587548;73;1381;-58
2023/08/13 08:04:25;;;;;;;;;;;23.30;65.80;;;;;;1582211;73;1478;-58
2023/08/13 08:06:26;;;;;;;;;;;23.30;66.00;;;;;;1576729;73;1310;-59
2023/08/13 08:08:28;;;;;;;;;;;23.30;66.00;;;;;;1586478;73;1342;-59
2023/08/13 08:10:31;;;;;;;;;;;23.40;65.80;;;;;;1585638;73;1499;-59
2023/08/13 08:12:33;;;;;;;;;;;23.40;65.90;;;;;;1578882;73;1451;-60
2023/08/13 08:14:35;;;;;;;;;;;23.30;65.90;;;;;;1579141;73;1923;-61
2023/08/13 08:16:37;;;;;;;;;;;23.30;65.80;;;;;;1578107;73;1491;-59
2023/08/13 08:18:39;;;;;;;;;;;23.30;66.00;;;;;;1590681;73;1425;-59
2023/08/13 08:20:41;;;;;;;;;;;23.40;65.70;;;;;;1585177;73;1419;-59
2023/08/13 08:22:43;;;;;;;;;;;23.40;65.60;;;;;;1591437;73;1629;-60
2023/08/13 08:24:44;;;;;;;;;;;23.40;65.60;;;;;;1584985;73;1513;-60
2023/08/13 08:26:46;;;;;;;;;;;23.30;65.70;;;;;;1590383;73;1526;-59
2023/08/13 08:28:48;;;;;;;;;;;23.40;65.70;;;;;;1579505;73;1484;-60
2023/08/13 08:30:50;;;;;;;;;;;23.40;65.60;;;;;;1587304;74;723;-60
2023/08/13 08:32:52;;;;;;;;;;;23.40;65.60;;;;;;1593078;73;733;-59
2023/08/13 08:34:54;;;;;;;;;;;23.40;65.60;;;;;;1580552;73;1926;-60
2023/08/13 08:36:56;;;;;;;;;;;23.40;65.70;;;;;;1594026;73;742;-59
2023/08/13 08:38:58;;;;;;;;;;;23.50;65.80;;;;;;1594296;74;1515;-60
2023/08/13 08:41:00;;;;;;;;;;;23.40;65.80;;;;;;1587998;73;727;-60
2023/08/13 08:43:02;;;;;;;;;;;23.50;65.80;;;;;;1577749;74;798;-59
2023/08/13 08:45:05;;;;;;;;;;;23.50;65.60;;;;;;1583871;73;709;-59
2023/08/13 08:47:06;;;;;;;;;;;23.50;65.70;;;;;;1578946;74;710;-59
2023/08/13 08:49:08;;;;;;;;;;;23.50;65.60;;;;;;1590674;73;1154;-59
2023/08/13 08:51:10;;;;;;;;;;;23.50;65.60;;;;;;1591524;73;684;-59
2023/08/13 08:53:12;;;;;;;;;;;23.40;65.40;;;;;;1586736;73;1428;-59
2023/08/13 08:55:14;;;;;;;;;;;23.50;65.70;;;;;;1587943;73;1925;-59
2023/08/13 08:57:16;;;;;;;;;;;23.50;65.60;;;;;;1586579;74;783;-59
2023/08/13 08:59:18;;;;;;;;;;;23.50;65.60;;;;;;1587831;74;1080;-60
2023/08/13 09:01:20;;;;;;;;;;;23.50;65.60;;;;;;1585004;73;724;-59
2023/08/13 09:03:21;;;;;;;;;;;23.50;65.70;;;;;;1578435;74;734;-59
2023/08/13 09:05:23;;;;;;;;;;;23.50;65.50;;;;;;1586123;73;648;-61
2023/08/13 09:07:33;;;;;;;;;;;23.50;65.50;;;;;;1589514;73;1490;-61
2023/08/13 09:09:32;;;;;;;;;;;23.50;65.90;;;;;;1578964;73;1432;-60
2023/08/13 09:11:35;;;;;;;;;;;23.50;65.90;;;;;;1587867;73;736;-59
2023/08/13 09:13:36;;;;;;;;;;;23.50;66.20;;;;;;1578103;74;735;-59
2023/08/13 09:15:41;;;;;;;;;;;23.50;66.30;;;;;;1582650;73;1937;-58
2023/08/13 09:17:42;;;;;;;;;;;23.60;67.20;;;;;;1584286;73;674;-57
2023/08/13 09:19:44;;;;;;;;;;;23.60;68.00;;;;;;1592467;73;1154;-58
2023/08/13 09:21:50;;;;;;;;;;;23.60;67.20;;;;;;1593296;73;1429;-58
2023/08/13 09:23:53;;;;;;;;;;;23.60;69.20;;;;;;1589787;73;703;-57
2023/08/13 09:25:56;;;;;;;;;;;23.70;68.80;;;;;;1588692;74;664;-60
2023/08/13 09:27:58;;;;;;;;;;;23.70;68.70;;;;;;1581413;73;731;-59
2023/08/13 09:30:00;;;;;;;;;;;23.70;68.70;;;;;;1583691;74;1139;-60
2023/08/13 09:32:02;;;;;;;;;;;23.70;68.00;;;;;;1590904;73;724;-58
2023/08/13 09:34:04;;;;;;;;;;;23.70;68.30;;;;;;1582984;74;825;-60
2023/08/13 09:36:06;;;;;;;;;;;23.70;67.40;;;;;;1582156;73;1933;-59
2023/08/13 09:38:08;;;;;;;;;;;23.70;67.50;;;;;;1595050;73;598;-57
2023/08/13 09:40:10;;;;;;;;;;;23.70;67.40;;;;;;1581703;74;1108;-58
2023/08/13 09:42:12;;;;;;;;;;;23.70;67.30;;;;;;1589492;73;813;-59
2023/08/13 09:44:14;;;;;;;;;;;23.70;67.60;;;;;;1578522;73;714;-59
2023/08/13 09:46:17;;;;;;;;;;;23.70;67.20;;;;;;1593734;73;697;-58
2023/08/13 09:48:21;;;;;;;;;;;23.70;67.50;;;;;;1577360;74;2034;-58
2023/08/13 09:50:22;;;;;;;;;;;23.70;67.30;;;;;;1571786;74;1584;-60
2023/08/13 09:52:26;;;;;;;;;;;23.70;67.00;;;;;;1582162;73;685;-59
2023/08/13 09:54:46;;;;;;;;;;;23.70;66.90;;;;;;1580729;74;802;-59
2023/08/13 09:56:49;;;;;;;;;;;23.70;66.80;;;;;;1595116;73;742;-59
2023/08/13 09:58:51;;;;;;;;;;;23.70;66.60;;;;;;1581677;74;1089;-58
2023/08/13 10:00:53;;;;;;;;;;;23.80;66.50;;;;;;1591592;74;732;-58
2023/08/13 10:02:55;;;;;;;;;;;23.70;66.90;;;;;;1581057;74;1536;-57
2023/08/13 10:04:57;;;;;;;;;;;23.70;67.00;;;;;;1583001;74;677;-59
2023/08/13 10:06:59;;;;;;;;;;;23.60;66.70;;;;;;1578115;74;768;-59
2023/08/13 10:09:01;;;;;;;;;;;23.60;66.70;;;;;;1582238;74;1130;-59
2023/08/13 10:11:03;;;;;;;;;;;23.60;66.90;;;;;;1592841;74;797;-58
2023/08/13 10:13:05;;;;;;;;;;;23.60;66.90;;;;;;1584485;74;736;-58
2023/08/13 10:15:07;;;;;;;;;;;23.60;67.00;;;;;;1589543;74;1938;-59
2023/08/13 10:17:09;;;;;;;;;;;23.50;66.70;;;;;;1594839;74;1450;-57
2023/08/13 10:19:11;;;;;;;;;;;23.50;66.80;;;;;;1594415;74;1143;-59
2023/08/13 10:21:14;;;;;;;;;;;23.60;66.90;;;;;;1584101;74;710;-58
2023/08/13 10:23:17;;;;;;;;;;;23.60;66.70;;;;;;1584544;74;751;-57
2023/08/13 10:25:28;;;;;;;;;;;23.50;66.80;;;;;;1586219;74;770;-59
2023/08/13 10:27:30;;;;;;;;;;;23.50;66.80;;;;;;1579146;74;668;-59
2023/08/13 10:29:36;;;;;;;;;;;23.50;66.80;;;;;;1589475;74;1124;-58
2023/08/13 10:31:38;;;;;;;;;;;23.50;67.00;;;;;;1579730;74;1804;-58
2023/08/13 10:33:40;;;;;;;;;;;23.50;66.90;;;;;;1580165;74;703;-58
2023/08/13 10:35:43;;;;;;;;;;;23.50;67.00;;;;;;1586395;74;1930;-58
2023/08/13 10:37:45;;;;;;;;;;;23.50;67.00;;;;;;1580583;74;632;-59
2023/08/13 10:39:48;;;;;;;;;;;23.50;66.80;;;;;;1562936;74;1261;-59
2023/08/13 10:41:50;;;;;;;;;;;23.50;67.00;;;;;;1581342;74;622;-59
2023/08/13 10:43:53;;;;;;;;;;;23.40;66.60;;;;;;1580165;74;767;-59
2023/08/13 10:45:55;;;;;;;;;;;23.50;66.80;;;;;;1587913;74;1949;-59
2023/08/13 10:48:00;;;;;;;;;;;23.50;66.80;;;;;;1578171;74;703;-58
2023/08/13 10:50:03;;;;;;;;;;;23.50;66.80;;;;;;1575321;74;1801;-59
2023/08/13 10:52:05;;;;;;;;;;;23.50;66.70;;;;;;1585526;74;705;-59
2023/08/13 10:54:07;;;;;;;;;;;23.50;66.70;;;;;;1583250;74;661;-58
2023/08/13 10:56:10;;;;;;;;;;;23.40;66.70;;;;;;1583901;74;1909;-59
2023/08/13 10:58:13;;;;;;;;;;;23.50;67.00;;;;;;1590057;74;1118;-59
2023/08/13 11:00:15;;;;;;;;;;;23.50;66.80;;;;;;1570876;74;1612;-58
2023/08/13 11:02:19;;;;;;;;;;;23.50;66.60;;;;;;1595154;74;780;-58
2023/08/13 11:04:21;;;;;;;;;;;23.50;66.80;;;;;;1585289;74;770;-59
2023/08/13 11:06:23;;;;;;;;;;;23.50;66.80;;;;;;1574905;74;952;-59
2023/08/13 11:08:25;;;;;;;;;;;23.50;66.60;;;;;;1572341;74;757;-59
2023/08/13 11:10:27;;;;;;;;;;;23.50;66.60;;;;;;1582024;74;1110;-59
2023/08/13 11:12:29;;;;;;;;;;;23.40;66.40;;;;;;1576282;74;661;-59
2023/08/13 11:14:31;;;;;;;;;;;23.40;66.70;;;;;;1573128;74;1824;-59
2023/08/13 11:16:33;;;;;;;;;;;23.50;66.80;;;;;;1582266;74;1914;-57
2023/08/13 11:18:35;;;;;;;;;;;23.50;66.70;;;;;;1577369;74;1152;-59
2023/08/13 11:20:38;;;;;;;;;;;23.40;66.80;;;;;;1576585;74;778;-59
2023/08/13 11:22:40;;;;;;;;;;;23.40;66.50;;;;;;1587642;74;793;-58
2023/08/13 11:24:45;;;;;;;;;;;23.40;66.50;;;;;;1576477;74;820;-58
2023/08/13 11:26:48;;;;;;;;;;;23.40;66.60;;;;;;1569015;74;1668;-58
2023/08/13 11:28:51;;;;;;;;;;;23.40;66.70;;;;;;1576832;74;1609;-58
2023/08/13 11:30:54;;;;;;;;;;;23.40;66.70;;;;;;1588592;74;713;-59
2023/08/13 11:32:56;;;;;;;;;;;23.40;66.50;;;;;;1582825;74;725;-58
2023/08/13 11:34:58;;;;;;;;;;;23.40;66.60;;;;;;1586688;74;744;-59
2023/08/13 11:37:00;;;;;;;;;;;23.40;66.50;;;;;;1588749;74;1927;-59
2023/08/13 11:39:03;;;;;;;;;;;23.40;66.70;;;;;;1586007;74;1105;-58
2023/08/13 11:41:11;;;;;;;;;;;23.30;66.70;;;;;;1586084;74;1523;-59
2023/08/13 11:43:13;;;;;;;;;;;23.40;66.70;;;;;;1573008;74;804;-59
2023/08/13 11:45:15;;;;;;;;;;;23.40;66.60;;;;;;1584622;74;745;-59
2023/08/13 11:47:25;;;;;;;;;;;23.40;66.40;;;;;;1581469;74;804;-58
2023/08/13 11:49:27;;;;;;;;;;;23.30;66.70;;;;;;1579698;73;1575;-58
2023/08/13 11:51:29;;;;;;;;;;;23.40;66.60;;;;;;1581605;74;754;-59
2023/08/13 11:53:31;;;;;;;;;;;23.40;66.50;;;;;;1581577;74;746;-58
2023/08/13 11:55:33;;;;;;;;;;;23.40;66.50;;;;;;1587943;74;1925;-57
2023/08/13 11:57:37;;;;;;;;;;;23.30;66.70;;;;;;1592668;74;669;-59
2023/08/13 11:59:39;;;;;;;;;;;23.30;66.60;;;;;;1588679;74;1568;-59
2023/08/13 12:01:40;;;;;;;;;;;23.40;66.50;;;;;;1583780;74;781;-58
2023/08/13 12:03:43;;;;;;;;;;;23.30;66.40;;;;;;1590598;74;712;-57
2023/08/13 12:05:45;;;;;;;;;;;23.40;66.40;;;;;;1591549;74;677;-59
2023/08/13 12:07:47;;;;;;;;;;;23.40;66.60;;;;;;1578494;74;818;-59
2023/08/13 12:09:48;;;;;;;;;;;23.40;66.50;;;;;;1592300;74;1321;-59